KAMA/AMA METAR and TAF weather

Enter ICAO airport designator
Station Type Date Time Source
KAMA METAR 2020/07/02 22:07 UTC NOAA

KAMA 022207Z 08021G31KT 10SM VCTS FEW110 27/16 A3004 RMK AO2 PK WND 07031/2200 LTG DSNT ALQDS TSE01 T02670161


Station Type Date Time Source
KAMA Decoded METAR 2020/07/02 22:07 UTC NOAA

AMARILLO INTERNATIONAL AIRPORT, TX, United States (KAMA) 35-13N 101-43W 1093M
Jul 02, 2020 - 06:07 PM EDT / 2020.07.02 2207 UTC
Wind: from the E (080 degrees) at 24 MPH (21 KT) gusting to 36 MPH (31 KT):0
Visibility: 10 mile(s):0
Sky conditions: mostly clear
Weather: thunder in the vicinity; Lightning observed
Temperature: 80.1 F (26.7 C)
Dew Point: 61.0 F (16.1 C)
Relative Humidity: 52%
Pressure (altimeter): 30.04 in. Hg (1017 hPa)
ob: KAMA 022207Z 08021G31KT 10SM VCTS FEW110 27/16 A3004 RMK AO2 PK WND 07031/2200 LTG DSNT ALQDS TSE01 T02670161
cycle: 22

Station Type Date Time Source
KAMA TAF 2020/07/02 20:39 UTC NOAA

TAF
AMD KAMA 021936Z 0220/0318 15012KT P6SM VCTS SCT050CB BKN120
TEMPO 0220/0222 VRB15G25KT TSRA BKN060CB
FM030100 15010KT P6SM SCT080 BKN100
FM031500 18007KT P6SM FEW250

Example: see airport list